Time;durP1;ratioP1;P1;durP2;ratioP2;P2;SDS_P1;SDS_P2;PMS_P1;PMS_P2;Temp;Humidity;BMP_temperature;BMP_pressure;BME280_temperature;BME280_humidity;BME280_pressure;Samples;Min_cycle;Max_cycle;Signal;HPM_P1;HPM_P2
2021/10/21 00:00:00;;;;;;;6.27;3.50;;;;;;;15.40;81.19;98505.75;684381;28;1295;-52
2021/10/21 00:00:21;;;;;;;5.55;3.42;;;;;;;15.40;81.52;98503.09;683815;28;1150;-53
2021/10/21 00:00:43;;;;;;;5.78;3.20;;;;;;;15.48;80.89;98503.50;683677;28;1258;-54
2021/10/21 00:01:05;;;;;;;5.85;3.30;;;;;;;15.50;80.69;98502.44;687128;28;4333;-55
2021/10/21 00:01:25;;;;;;;6.25;3.60;;;;;;;15.45;80.94;98498.41;687331;28;3293;-54
2021/10/21 00:01:46;;;;;;;5.50;3.40;;;;;;;15.52;80.49;98493.63;687705;28;3759;-51
2021/10/21 00:02:07;;;;;;;5.88;3.00;;;;;;;15.62;80.05;98500.88;688048;28;1394;-56
2021/10/21 00:02:27;;;;;;;6.83;3.53;;;;;;;15.63;79.98;98488.53;687073;28;1440;-52
2021/10/21 00:02:47;;;;;;;7.05;3.63;;;;;;;15.57;80.26;98495.03;687150;28;1322;-54
2021/10/21 00:03:08;;;;;;;6.57;3.77;;;;;;;15.49;80.85;98492.88;687621;28;1173;-56
2021/10/21 00:03:28;;;;;;;5.70;3.20;;;;;;;15.60;80.00;98488.75;688704;28;1311;-56
2021/10/21 00:03:49;;;;;;;5.47;3.13;;;;;;;15.65;79.80;98490.16;687326;28;1359;-55
2021/10/21 00:04:09;;;;;;;5.50;3.20;;;;;;;15.66;79.88;98481.31;687864;28;4195;-55
2021/10/21 00:04:29;;;;;;;6.43;3.30;;;;;;;15.69;80.08;98480.28;686831;28;1265;-53
2021/10/21 00:04:50;;;;;;;6.18;3.33;;;;;;;15.61;80.08;98479.91;687789;28;1907;-53
2021/10/21 00:05:10;;;;;;;6.30;3.37;;;;;;;15.62;80.16;98473.72;684391;28;4107;-56
2021/10/21 00:05:31;;;;;;;6.22;3.35;;;;;;;15.52;80.65;98473.41;683264;28;1256;-53
2021/10/21 00:05:51;;;;;;;5.73;3.60;;;;;;;15.48;80.91;98471.91;682648;28;1051;-55
2021/10/21 00:06:11;;;;;;;5.93;3.50;;;;;;;15.52;80.45;98473.41;682871;28;1475;-53
2021/10/21 00:06:32;;;;;;;6.22;3.53;;;;;;;15.49;80.77;98473.56;682731;28;1335;-56
2021/10/21 00:06:52;;;;;;;5.30;3.40;;;;;;;15.51;80.65;98469.09;679694;28;4408;-55
2021/10/21 00:07:13;;;;;;;5.20;3.35;;;;;;;15.45;81.03;98466.81;682803;28;1918;-57
2021/10/21 00:07:34;;;;;;;6.37;3.53;;;;;;;15.41;81.42;98473.19;684678;28;1451;-56
2021/10/21 00:07:54;;;;;;;6.55;3.47;;;;;;;15.39;81.39;98469.81;685530;28;1334;-53
2021/10/21 00:08:14;;;;;;;6.05;3.25;;;;;;;15.43;80.75;98466.06;685610;28;1126;-56
2021/10/21 00:08:35;;;;;;;5.00;3.23;;;;;;;15.48;80.61;98466.63;684234;28;3504;-55
2021/10/21 00:08:55;;;;;;;5.70;3.40;;;;;;;15.52;80.80;98459.38;687732;28;1403;-58
2021/10/21 00:09:16;;;;;;;5.93;3.40;;;;;;;15.48;81.07;98467.47;688803;28;1153;-55
2021/10/21 00:09:36;;;;;;;5.50;3.00;;;;;;;15.57;80.14;98463.44;687918;28;1429;-53
2021/10/21 00:09:59;;;;;;;5.40;3.10;;;;;;;15.68;79.53;98469.84;687050;28;4355;-56
2021/10/21 00:10:20;;;;;;;5.18;3.30;;;;;;;15.62;80.09;98465.81;684782;28;1397;-52
2021/10/21 00:10:40;;;;;;;5.95;3.20;;;;;;;15.59;80.07;98458.94;685786;28;1200;-53
2021/10/21 00:11:01;;;;;;;5.47;3.10;;;;;;;15.59;80.13;98456.31;683550;28;2273;-52
2021/10/21 00:11:21;;;;;;;5.20;3.22;;;;;;;15.57;80.42;98457.34;684133;28;1272;-54
2021/10/21 00:11:42;;;;;;;6.27;3.53;;;;;;;15.52;80.60;98462.03;682727;28;1268;-53
2021/10/21 00:12:03;;;;;;;5.72;3.40;;;;;;;15.48;81.04;98464.00;683060;28;3518;-51
2021/10/21 00:12:23;;;;;;;5.95;3.30;;;;;;;15.51;80.77;98458.56;685349;28;4004;-57
2021/10/21 00:12:44;;;;;;;7.07;3.43;;;;;;;15.44;81.28;98459.88;683427;28;1165;-53
2021/10/21 00:13:04;;;;;;;6.65;3.50;;;;;;;15.52;80.65;98457.63;684631;28;4510;-52
2021/10/21 00:13:25;;;;;;;5.50;3.30;;;;;;;15.51;81.41;98458.56;685355;28;1602;-55
2021/10/21 00:13:45;;;;;;;4.67;3.10;;;;;;;15.47;81.11;98457.88;683376;28;1122;-56
2021/10/21 00:14:05;;;;;;;5.43;3.30;;;;;;;15.51;80.57;98453.28;683456;28;1153;-53
2021/10/21 00:14:26;;;;;;;6.18;3.10;;;;;;;15.51;80.75;98453.28;681616;28;1597;-55
2021/10/21 00:14:46;;;;;;;6.07;3.37;;;;;;;15.45;81.29;98449.25;681304;28;1360;-57
2021/10/21 00:15:09;;;;;;;5.53;3.20;;;;;;;15.42;81.31;98449.41;681950;28;1443;-54
2021/10/21 00:15:30;;;;;;;5.15;3.13;;;;;;;15.35;81.68;98452.50;683422;28;3257;-55
2021/10/21 00:15:50;;;;;;;5.20;3.10;;;;;;;15.33;81.96;98461.34;684813;28;4470;-55
2021/10/21 00:16:11;;;;;;;6.28;3.33;;;;;;;15.31;81.90;98455.34;686694;28;1307;-56
2021/10/21 00:16:31;;;;;;;5.60;3.30;;;;;;;15.31;81.79;98452.69;688104;28;1216;-53
2021/10/21 00:16:52;;;;;;;6.40;3.60;;;;;;;15.41;81.29;98449.50;686412;28;2668;-52
2021/10/21 00:17:12;;;;;;;5.30;3.20;;;;;;;15.34;81.91;98451.69;687286;28;1239;-55
2021/10/21 00:17:33;;;;;;;5.57;3.20;;;;;;;15.39;81.43;98454.84;685258;28;1303;-55
2021/10/21 00:17:53;;;;;;;4.97;3.20;;;;;;;15.42;81.31;98445.94;684576;28;1086;-55
2021/10/21 00:18:14;;;;;;;5.97;3.00;;;;;;;15.39;81.48;98454.03;685765;28;1123;-56
2021/10/21 00:18:34;;;;;;;5.50;3.20;;;;;;;15.37;81.74;98440.94;683034;28;1331;-54
2021/10/21 00:18:55;;;;;;;5.60;3.17;;;;;;;15.39;81.78;98449.59;681271;28;4868;-56
2021/10/21 00:19:16;;;;;;;5.28;3.25;;;;;;;15.39;81.68;98448.75;681343;28;3587;-52
2021/10/21 00:19:36;;;;;;;6.00;3.10;;;;;;;15.59;80.33;98450.16;684580;28;1157;-54
2021/10/21 00:19:57;;;;;;;5.20;3.00;;;;;;;15.57;80.60;98446.78;685198;28;1387;-57
2021/10/21 00:20:18;;;;;;;5.20;3.07;;;;;;;15.51;81.12;98442.75;684514;28;1428;-54
2021/10/21 00:20:38;;;;;;;5.68;3.20;;;;;;;15.61;80.35;98443.88;687522;28;1292;-53
2021/10/21 00:20:59;;;;;;;5.95;3.20;;;;;;;15.60;80.34;98446.59;688549;28;1072;-54
2021/10/21 00:21:19;;;;;;;6.37;3.30;;;;;;;15.59;80.64;98444.91;688121;28;1057;-55
2021/10/21 00:21:40;;;;;;;6.22;3.47;;;;;;;15.52;80.72;98443.59;687984;28;1118;-53
2021/10/21 00:22:00;;;;;;;6.53;3.17;;;;;;;15.69;79.50;98445.19;688481;28;4590;-54
2021/10/21 00:22:20;;;;;;;5.95;3.10;;;;;;;15.74;79.33;98441.34;687610;28;3282;-54
2021/10/21 00:22:42;;;;;;;6.03;3.40;;;;;;;15.70;79.86;98452.16;685299;28;3321;-56
2021/10/21 00:23:02;;;;;;;5.78;3.13;;;;;;;15.77;79.01;98448.19;686069;28;1171;-50
2021/10/21 00:23:23;;;;;;;5.70;2.87;;;;;;;15.82;78.83;98439.13;684821;28;1811;-53
2021/10/21 00:23:43;;;;;;;6.83;3.20;;;;;;;15.87;78.63;98443.25;685606;28;1618;-55
2021/10/21 00:24:04;;;;;;;5.57;2.90;;;;;;;15.76;79.58;98446.53;684584;28;1166;-53
2021/10/21 00:24:24;;;;;;;5.68;3.10;;;;;;;15.65;80.08;98442.75;685604;28;1320;-54
2021/10/21 00:24:45;;;;;;;5.10;3.00;;;;;;;15.59;80.22;98443.13;687373;28;1346;-52
2021/10/21 00:25:06;;;;;;;5.35;3.10;;;;;;;15.55;80.09;98444.25;687462;28;4551;-53
2021/10/21 00:25:26;;;;;;;5.57;3.20;;;;;;;15.52;80.64;98446.22;687855;28;1232;-53
2021/10/21 00:25:47;;;;;;;5.20;2.77;;;;;;;15.72;78.94;98455.56;687096;28;1135;-52
2021/10/21 00:26:07;;;;;;;4.97;2.72;;;;;;;15.80;78.79;98446.25;687205;28;3777;-56
2021/10/21 00:26:28;;;;;;;5.13;2.90;;;;;;;15.69;79.90;98439.91;687862;28;1123;-55
2021/10/21 00:26:48;;;;;;;4.85;2.92;;;;;;;15.77;78.49;98445.56;688554;28;1284;-53
2021/10/21 00:27:08;;;;;;;5.33;2.87;;;;;;;15.70;79.13;98441.63;683871;28;1927;-51
2021/10/21 00:27:29;;;;;;;5.90;3.10;;;;;;;15.69;79.59;98442.56;683207;28;1149;-53
2021/10/21 00:27:49;;;;;;;5.53;3.00;;;;;;;15.67;79.85;98447.91;683280;28;4443;-57
2021/10/21 00:28:12;;;;;;;5.87;3.00;;;;;;;15.60;80.09;98452.75;683348;28;1028;-56
2021/10/21 00:28:36;;;;;;;5.88;2.70;;;;;;;15.79;78.49;98449.84;680999;28;1214;-55
2021/10/21 00:28:57;;;;;;;5.75;2.90;;;;;;;15.85;78.72;98459.16;680071;28;1302;-53
2021/10/21 00:29:17;;;;;;;5.20;2.87;;;;;;;15.73;79.80;98462.50;683814;28;1369;-53
2021/10/21 00:29:37;;;;;;;5.43;2.90;;;;;;;15.81;79.01;98460.28;682230;28;3690;-52
2021/10/21 00:29:58;;;;;;;6.27;2.80;;;;;;;15.89;78.49;98462.44;683316;28;1402;-55
2021/10/21 00:30:19;;;;;;;6.18;2.80;;;;;;;15.86;78.52;98463.47;683276;28;1131;-56
2021/10/21 00:30:39;;;;;;;5.07;2.90;;;;;;;15.88;78.77;98477.41;687714;28;1453;-57
2021/10/21 00:31:00;;;;;;;4.87;2.80;;;;;;;15.80;79.66;98464.72;686663;28;4592;-53
2021/10/21 00:31:20;;;;;;;5.85;2.67;;;;;;;15.82;79.23;98472.50;688017;28;1101;-53
2021/10/21 00:31:41;;;;;;;4.87;2.87;;;;;;;15.75;80.26;98479.06;687849;28;1626;-55
2021/10/21 00:32:02;;;;;;;5.38;3.10;;;;;;;15.76;79.92;98480.78;687402;28;1014;-51
2021/10/21 00:32:22;;;;;;;5.68;2.83;;;;;;;15.79;79.05;98472.66;685981;28;1539;-54
2021/10/21 00:32:43;;;;;;;6.83;3.00;;;;;;;15.85;79.37;98469.69;684483;28;1046;-57
2021/10/21 00:33:03;;;;;;;6.93;2.88;;;;;;;15.78;80.16;98479.75;684857;28;3436;-53
2021/10/21 00:33:24;;;;;;;4.70;2.70;;;;;;;15.75;80.34;98485.16;684914;28;1001;-52
2021/10/21 00:33:44;;;;;;;4.90;2.97;;;;;;;15.68;81.16;98481.22;684909;28;1279;-52
2021/10/21 00:34:05;;;;;;;5.70;3.10;;;;;;;15.71;81.91;98482.81;684084;28;4467;-55
2021/10/21 00:34:25;;;;;;;5.72;3.10;;;;;;;15.74;81.36;98485.28;687298;28;1298;-51
2021/10/21 00:34:45;;;;;;;5.33;3.20;;;;;;;15.74;81.70;98480.00;687991;28;1263;-51
2021/10/21 00:35:06;;;;;;;5.70;3.15;;;;;;;15.75;81.42;98481.69;686800;28;1240;-58
2021/10/21 00:35:27;;;;;;;7.07;3.20;;;;;;;15.63;81.97;98478.00;689219;28;1060;-52
2021/10/21 00:35:48;;;;;;;6.82;3.15;;;;;;;15.57;82.10;98478.41;687306;28;1267;-51
2021/10/21 00:36:09;;;;;;;6.60;3.30;;;;;;;15.50;83.24;98477.91;686725;28;1157;-55
2021/10/21 00:36:30;;;;;;;6.35;3.28;;;;;;;15.56;82.42;98472.28;687578;28;3986;-53
2021/10/21 00:36:50;;;;;;;5.57;3.00;;;;;;;15.53;82.51;98482.16;687672;28;4649;-54
2021/10/21 00:37:11;;;;;;;5.68;3.10;;;;;;;15.57;82.86;98473.97;687338;28;1008;-55
2021/10/21 00:37:31;;;;;;;6.57;3.30;;;;;;;15.49;83.37;98470.94;686386;28;1016;-56
2021/10/21 00:37:51;;;;;;;7.43;3.60;;;;;;;15.43;83.53;98471.31;685198;28;1410;-53
2021/10/21 00:38:12;;;;;;;6.67;3.03;;;;;;;15.46;82.71;98469.34;686070;28;1196;-49
2021/10/21 00:38:32;;;;;;;7.18;2.80;;;;;;;15.49;82.94;98470.94;685950;28;1622;-50
2021/10/21 00:38:53;;;;;;;5.93;3.10;;;;;;;15.46;83.36;98464.06;685578;28;1159;-54
2021/10/21 00:39:13;;;;;;;6.10;3.00;;;;;;;15.43;83.46;98466.06;685449;28;3709;-54
2021/10/21 00:39:33;;;;;;;6.57;3.05;;;;;;;15.36;83.60;98467.38;686993;28;1140;-53
2021/10/21 00:39:53;;;;;;;6.57;3.00;;;;;;;15.29;84.50;98457.19;684448;28;5070;-53
2021/10/21 00:40:14;;;;;;;6.80;3.25;;;;;;;15.31;85.38;98457.09;685557;28;2185;-51
2021/10/21 00:40:34;;;;;;;5.77;3.33;;;;;;;15.25;85.87;98460.94;682893;28;1576;-53
2021/10/21 00:40:55;;;;;;;6.53;3.53;;;;;;;15.18;86.85;98456.97;685370;28;1303;-52
2021/10/21 00:41:15;;;;;;;5.85;3.35;;;;;;;15.14;85.72;98444.94;683691;28;1554;-55
2021/10/21 00:41:36;;;;;;;5.97;3.10;;;;;;;15.14;85.73;98451.03;683679;28;1283;-55
2021/10/21 00:41:57;;;;;;;7.13;3.30;;;;;;;15.14;85.84;98445.78;685295;28;1090;-54
2021/10/21 00:42:17;;;;;;;6.53;3.30;;;;;;;15.15;86.15;98447.47;686428;28;1216;-54
2021/10/21 00:42:38;;;;;;;5.00;2.80;;;;;;;15.23;85.07;98449.69;685761;28;1284;-50
2021/10/21 00:42:58;;;;;;;6.00;3.10;;;;;;;15.22;85.60;98439.25;685415;28;4699;-52
2021/10/21 00:43:19;;;;;;;6.70;3.20;;;;;;;15.25;85.47;98447.78;687470;28;1166;-52
2021/10/21 00:43:41;;;;;;;6.23;3.10;;;;;;;15.24;86.50;98440.81;686178;28;3562;-53
2021/10/21 00:44:11;;;;;;;5.82;3.10;;;;;;;15.18;86.31;98440.34;687123;28;1510;-52
2021/10/21 00:44:31;;;;;;;6.00;3.00;;;;;;;15.22;85.58;98444.50;686831;28;1144;-53
2021/10/21 00:44:52;;;;;;;6.30;2.80;;;;;;;15.24;85.73;98447.88;686342;28;1316;-53
2021/10/21 00:45:12;;;;;;;6.47;3.00;;;;;;;15.20;85.88;98444.56;688198;28;1338;-51
2021/10/21 00:45:33;;;;;;;7.22;3.25;;;;;;;15.21;85.74;98443.63;687810;28;1331;-54
2021/10/21 00:45:53;;;;;;;6.82;3.10;;;;;;;15.21;86.05;98446.28;687516;28;4588;-52
2021/10/21 00:46:15;;;;;;;7.30;3.30;;;;;;;15.18;85.87;98441.19;688110;28;1219;-54
2021/10/21 00:46:36;;;;;;;6.63;3.22;;;;;;;15.09;86.44;98442.59;686789;28;1137;-53
2021/10/21 00:46:57;;;;;;;5.32;2.95;;;;;;;15.09;86.44;98445.22;687971;28;3127;-52
2021/10/21 00:47:18;;;;;;;6.18;3.03;;;;;;;15.05;86.98;98446.34;687863;28;3460;-53
2021/10/21 00:47:39;;;;;;;7.10;3.40;;;;;;;15.02;87.00;98445.66;688462;28;1390;-54
2021/10/21 00:47:59;;;;;;;6.13;3.23;;;;;;;14.97;86.68;98440.69;688490;28;1221;-53
2021/10/21 00:48:20;;;;;;;5.63;2.90;;;;;;;14.96;86.78;98447.72;683982;28;1072;-52
2021/10/21 00:48:41;;;;;;;5.97;3.08;;;;;;;14.91;87.81;98455.03;685794;28;1054;-52
2021/10/21 00:49:03;;;;;;;6.07;3.13;;;;;;;14.94;88.32;98454.03;684102;28;4673;-55
2021/10/21 00:49:23;;;;;;;6.32;3.10;;;;;;;14.89;88.52;98459.53;684899;28;1136;-57
2021/10/21 00:49:44;;;;;;;7.55;3.30;;;;;;;14.91;87.58;98443.66;685459;28;1120;-53
2021/10/21 00:50:05;;;;;;;7.73;3.50;;;;;;;14.86;88.84;98445.72;685233;28;1315;-52
2021/10/21 00:50:26;;;;;;;7.05;3.20;;;;;;;14.86;88.74;98446.56;686431;28;2954;-53
2021/10/21 00:50:46;;;;;;;6.20;3.13;;;;;;;14.87;88.65;98427.22;686720;28;2117;-56
2021/10/21 00:51:11;;;;;;;5.80;3.15;;;;;;;14.78;88.80;98430.38;687701;28;1460;-57
2021/10/21 00:51:32;;;;;;;6.35;3.03;;;;;;;14.86;90.18;98430.78;687943;28;1398;-52
2021/10/21 00:51:52;;;;;;;6.32;3.15;;;;;;;14.87;88.99;98424.59;686143;28;4499;-51
2021/10/21 00:52:13;;;;;;;4.87;3.00;;;;;;;14.93;88.01;98426.00;687228;28;1204;-51
2021/10/21 00:52:34;;;;;;;6.40;2.88;;;;;;;14.93;87.53;98426.84;687847;28;1355;-56
2021/10/21 00:52:56;;;;;;;6.68;3.30;;;;;;;14.88;88.07;98422.78;686805;28;1335;-53
2021/10/21 00:53:17;;;;;;;6.22;3.25;;;;;;;14.81;88.58;98414.41;687788;28;1137;-53
2021/10/21 00:53:39;;;;;;;5.80;2.90;;;;;;;14.86;88.45;98419.41;684530;28;1661;-52
2021/10/21 00:54:00;;;;;;;6.03;3.00;;;;;;;14.80;88.40;98416.19;685114;28;1951;-55
2021/10/21 00:54:21;;;;;;;6.85;3.10;;;;;;;14.86;88.98;98420.25;685001;28;1447;-55
2021/10/21 00:54:43;;;;;;;7.00;3.20;;;;;;;14.91;88.45;98428.72;685072;28;1289;-53
2021/10/21 00:55:06;;;;;;;6.25;3.00;;;;;;;14.88;88.49;98426.25;684847;28;4579;-55
2021/10/21 00:55:27;;;;;;;6.28;3.10;;;;;;;14.89;88.48;98420.06;686036;28;1152;-54
2021/10/21 00:55:48;;;;;;;7.18;3.30;;;;;;;14.89;88.80;98427.13;686544;28;1077;-53
2021/10/21 00:56:13;;;;;;;6.07;3.25;;;;;;;14.88;89.29;98413.09;687301;28;1266;-51
2021/10/21 00:56:34;;;;;;;4.85;2.92;;;;;;;14.86;88.56;98422.88;686416;28;1576;-53
2021/10/21 00:56:56;;;;;;;5.05;3.20;;;;;;;14.81;88.74;98417.03;687574;28;1120;-55
2021/10/21 00:57:16;;;;;;;6.05;2.92;;;;;;;14.79;88.69;98414.50;687142;28;1338;-57
2021/10/21 00:57:37;;;;;;;6.53;3.30;;;;;;;14.75;88.69;98422.66;686305;28;3051;-52
2021/10/21 00:57:58;;;;;;;6.37;3.37;;;;;;;14.83;89.11;98425.69;686828;28;4417;-55
2021/10/21 00:58:19;;;;;;;5.75;3.15;;;;;;;14.81;89.32;98419.66;688893;28;1279;-55
2021/10/21 00:58:41;;;;;;;5.97;3.00;;;;;;;14.79;89.05;98429.44;688739;28;1116;-55
2021/10/21 00:59:04;;;;;;;5.93;3.30;;;;;;;14.68;90.12;98421.34;686783;28;1487;-51
2021/10/21 00:59:25;;;;;;;6.28;3.25;;;;;;;14.60;90.57;98425.19;687579;28;994;-55
2021/10/21 00:59:46;;;;;;;5.78;3.10;;;;;;;14.64;90.60;98425.91;687629;28;1241;-55
2021/10/21 01:00:07;;;;;;;6.30;3.10;;;;;;;14.74;89.92;98419.16;688031;28;1104;-55
2021/10/21 01:00:28;;;;;;;6.10;3.22;;;;;;;14.75;89.86;98420.03;688916;28;991;-56
2021/10/21 01:00:48;;;;;;;5.72;3.20;;;;;;;14.72;90.36;98418.44;687844;28;974;-55
2021/10/21 01:01:09;;;;;;;6.50;3.10;;;;;;;14.75;89.03;98422.66;687493;28;4506;-53
2021/10/21 01:01:32;;;;;;;5.50;3.00;;;;;;;14.72;88.85;98422.84;689089;28;1056;-57
2021/10/21 01:01:53;;;;;;;5.85;3.10;;;;;;;14.74;89.94;98426.22;682795;28;1382;-55
2021/10/21 01:02:13;;;;;;;6.45;3.28;;;;;;;14.80;89.45;98420.59;683712;28;1455;-56
2021/10/21 01:02:34;;;;;;;6.60;3.50;;;;;;;14.79;88.93;98417.13;682233;28;1137;-54
2021/10/21 01:02:54;;;;;;;6.53;3.40;;;;;;;14.73;88.94;98420.13;682361;28;1238;-57
2021/10/21 01:03:14;;;;;;;5.57;3.13;;;;;;;14.64;90.26;98418.84;681129;29;1411;-56
2021/10/21 01:03:35;;;;;;;5.20;2.90;;;;;;;14.64;89.64;98410.97;680977;28;1375;-57
2021/10/21 01:03:55;;;;;;;5.93;2.97;;;;;;;14.59;90.52;98409.50;685423;28;4490;-54
2021/10/21 01:04:16;;;;;;;7.53;3.70;;;;;;;14.58;91.24;98413.94;686445;28;1180;-55
2021/10/21 01:04:36;;;;;;;6.00;3.30;;;;;;;14.62;90.26;98415.47;684574;28;3729;-58
2021/10/21 01:04:57;;;;;;;7.00;3.28;;;;;;;14.54;90.76;98401.03;685592;28;1520;-53
2021/10/21 01:05:17;;;;;;;8.40;3.30;;;;;;;14.61;90.55;98405.03;688840;28;1232;-56
2021/10/21 01:05:37;;;;;;;7.37;3.30;;;;;;;14.68;90.16;98397.66;687801;28;1193;-53
2021/10/21 01:05:58;;;;;;;5.63;2.90;;;;;;;14.71;90.03;98392.22;688581;28;1255;-55
2021/10/21 01:06:19;;;;;;;6.18;2.90;;;;;;;14.74;90.04;98376.25;688211;28;1088;-56
2021/10/21 01:06:42;;;;;;;5.87;3.00;;;;;;;14.72;89.95;98375.50;687171;28;1329;-55
2021/10/21 01:07:03;;;;;;;6.88;3.30;;;;;;;14.73;89.81;98374.56;684317;28;4976;-56
2021/10/21 01:07:23;;;;;;;5.97;3.50;;;;;;;14.70;89.68;98377.38;686148;28;1120;-56
2021/10/21 01:07:44;;;;;;;6.13;3.42;;;;;;;14.70;89.59;98374.75;683671;28;1358;-55
2021/10/21 01:08:04;;;;;;;6.80;3.38;;;;;;;14.71;89.52;98364.13;677268;29;3470;-55
2021/10/21 01:08:25;;;;;;;7.03;2.80;;;;;;;14.70;90.35;98369.47;677315;29;1163;-56
2021/10/21 01:08:46;;;;;;;5.97;3.00;;;;;;;14.62;90.22;98344.50;678184;29;1388;-54
2021/10/21 01:09:08;;;;;;;6.45;2.88;;;;;;;14.63;91.32;98335.66;677387;29;2003;-58
2021/10/21 01:09:29;;;;;;;6.07;3.00;;;;;;;14.70;90.63;98344.03;678049;29;1315;-54
2021/10/21 01:09:49;;;;;;;5.22;2.92;;;;;;;14.60;91.16;98367.34;681661;28;1146;-57
2021/10/21 01:10:10;;;;;;;4.80;2.53;;;;;;;14.68;89.91;98352.97;686222;28;4345;-53
2021/10/21 01:10:30;;;;;;;4.95;2.25;;;;;;;14.70;89.56;98345.81;681114;29;1328;-57
2021/10/21 01:10:51;;;;;;;4.63;2.33;;;;;;;14.72;90.10;98342.16;679465;28;1074;-57
2021/10/21 01:11:13;;;;;;;5.03;2.58;;;;;;;14.72;90.34;98341.31;679558;29;1042;-53
2021/10/21 01:11:33;;;;;;;4.72;2.55;;;;;;;14.77;90.16;98347.13;679891;29;2944;-57
2021/10/21 01:11:54;;;;;;;6.40;2.60;;;;;;;14.80;90.06;98349.59;679627;28;3533;-57
2021/10/21 01:12:14;;;;;;;4.73;2.37;;;;;;;14.77;89.81;98357.66;681795;28;1114;-54
2021/10/21 01:12:37;;;;;;;4.38;2.40;;;;;;;14.74;90.02;98357.84;685116;28;1624;-57
2021/10/21 01:12:58;;;;;;;5.35;2.40;;;;;;;14.66;90.01;98362.72;686623;28;4372;-58
2021/10/21 01:13:18;;;;;;;4.60;2.30;;;;;;;14.66;90.81;98368.81;687616;28;1264;-56
2021/10/21 01:13:39;;;;;;;4.65;2.22;;;;;;;14.70;90.19;98372.13;687455;28;1331;-54
2021/10/21 01:13:59;;;;;;;4.67;2.37;;;;;;;14.73;90.20;98358.78;684755;28;1614;-55
2021/10/21 01:14:20;;;;;;;5.63;2.53;;;;;;;14.76;90.14;98369.09;685214;28;1197;-57
2021/10/21 01:14:42;;;;;;;6.47;2.40;;;;;;;14.77;89.66;98370.81;684181;28;987;-57
2021/10/21 01:15:25;;;;;;;4.55;2.30;;;;;;;14.75;90.80;98354.28;683217;28;3158;-54
2021/10/21 01:15:46;;;;;;;3.85;2.40;;;;;;;14.70;91.02;98362.44;683876;28;905;-55
2021/10/21 01:16:10;;;;;;;4.63;2.40;;;;;;;14.70;90.82;98351.06;685644;28;4598;-58
2021/10/21 01:16:30;;;;;;;4.55;2.50;;;;;;;14.66;90.74;98353.03;684925;28;1081;-58
2021/10/21 01:16:50;;;;;;;5.00;2.50;;;;;;;14.61;91.11;98361.16;686173;28;1066;-56
2021/10/21 01:17:17;;;;;;;4.78;2.50;;;;;;;14.58;91.34;98361.34;687014;28;1376;-57
2021/10/21 01:17:38;;;;;;;4.82;2.35;;;;;;;14.57;91.98;98370.16;686410;28;1129;-53
2021/10/21 01:17:59;;;;;;;5.40;2.43;;;;;;;14.56;91.56;98359.72;688384;28;1147;-57
2021/10/21 01:18:20;;;;;;;4.88;2.40;;;;;;;14.48;92.39;98360.16;686895;28;2626;-56
2021/10/21 01:18:41;;;;;;;3.97;2.30;;;;;;;14.47;92.48;98367.22;685424;28;3604;-57
2021/10/21 01:19:02;;;;;;;5.38;2.33;;;;;;;14.54;92.24;98369.47;684918;28;4571;-53
2021/10/21 01:19:24;;;;;;;5.00;2.30;;;;;;;14.53;91.93;98360.75;685605;28;894;-56
2021/10/21 01:19:45;;;;;;;4.53;2.50;;;;;;;14.47;91.81;98358.50;685699;28;1556;-56
2021/10/21 01:20:06;;;;;;;5.60;2.78;;;;;;;14.52;92.47;98360.84;687274;28;1317;-53
2021/10/21 01:20:27;;;;;;;5.57;2.65;;;;;;;14.47;92.53;98369.84;684217;28;1026;-55
2021/10/21 01:20:47;;;;;;;5.00;2.50;;;;;;;14.55;91.42;98353.66;685218;28;1002;-55
2021/10/21 01:21:09;;;;;;;5.50;2.33;;;;;;;14.53;91.24;98362.56;686567;28;971;-56
2021/10/21 01:21:29;;;;;;;4.72;2.40;;;;;;;14.62;91.35;98364.63;686010;28;1254;-56
2021/10/21 01:21:52;;;;;;;4.90;2.27;;;;;;;14.69;90.62;98352.88;685326;28;4563;-58
2021/10/21 01:22:12;;;;;;;4.85;2.60;;;;;;;14.70;90.42;98351.06;686308;28;2244;-58
2021/10/21 01:22:33;;;;;;;5.73;2.60;;;;;;;14.74;90.56;98350.78;688807;28;1178;-56
2021/10/21 01:22:53;;;;;;;5.47;2.53;;;;;;;14.74;90.27;98353.41;688585;28;1309;-52
2021/10/21 01:23:14;;;;;;;4.20;2.30;;;;;;;14.75;89.74;98343.78;688142;28;1478;-56
2021/10/21 01:23:35;;;;;;;5.10;2.20;;;;;;;14.76;90.09;98346.31;688048;28;1210;-60
2021/10/21 01:23:56;;;;;;;4.65;2.20;;;;;;;14.76;89.94;98346.31;688295;28;1084;-57
2021/10/21 01:24:17;;;;;;;4.55;2.20;;;;;;;14.69;90.01;98347.59;688048;28;1030;-55
2021/10/21 01:24:38;;;;;;;5.43;2.72;;;;;;;14.70;89.90;98346.66;688045;28;1088;-54
2021/10/21 01:24:58;;;;;;;5.77;2.47;;;;;;;14.66;90.17;98349.56;687981;28;4649;-57
2021/10/21 01:25:19;;;;;;;5.50;2.50;;;;;;;14.58;90.34;98340.31;688207;28;980;-58
2021/10/21 01:25:42;;;;;;;5.57;2.65;;;;;;;14.59;90.68;98355.16;686389;28;2049;-57
2021/10/21 01:26:06;;;;;;;6.32;2.78;;;;;;;14.59;90.42;98339.38;688792;28;1128;-55
2021/10/21 01:26:27;;;;;;;6.32;2.72;;;;;;;14.53;90.71;98334.47;687375;28;1139;-58
2021/10/21 01:26:49;;;;;;;6.13;2.60;;;;;;;14.51;91.17;98340.75;687161;28;1053;-58
2021/10/21 01:27:10;;;;;;;5.55;2.63;;;;;;;14.45;91.04;98334.94;684235;28;1914;-58
2021/10/21 01:27:30;;;;;;;4.83;2.43;;;;;;;14.37;91.68;98341.53;684746;28;1088;-58
2021/10/21 01:27:51;;;;;;;4.25;2.35;;;;;;;14.39;90.89;98342.31;685162;28;4491;-55
2021/10/21 01:28:11;;;;;;;4.75;2.17;;;;;;;14.39;90.82;98344.94;685033;28;1347;-55
2021/10/21 01:28:32;;;;;;;5.20;2.20;;;;;;;14.45;89.74;98345.44;684943;28;1324;-58
2021/10/21 01:28:52;;;;;;;4.45;2.00;;;;;;;14.57;87.59;98348.28;682873;28;3834;-55
2021/10/21 01:29:15;;;;;;;5.00;1.90;;;;;;;14.57;88.00;98357.00;685553;28;1343;-57
2021/10/21 01:29:35;;;;;;;5.65;1.80;;;;;;;14.60;86.57;98356.81;684791;28;1194;-57
2021/10/21 01:29:56;;;;;;;4.20;1.90;;;;;;;14.66;86.87;98354.81;685063;28;1296;-57
2021/10/21 01:30:19;;;;;;;3.83;1.80;;;;;;;14.69;86.80;98367.78;685039;28;945;-55
2021/10/21 01:30:39;;;;;;;4.60;2.05;;;;;;;14.71;87.00;98347.50;685956;28;1067;-53
2021/10/21 01:31:00;;;;;;;4.50;2.20;;;;;;;14.71;86.77;98368.56;687302;28;4775;-54
2021/10/21 01:31:20;;;;;;;5.23;2.10;;;;;;;14.65;87.17;98359.25;686448;28;1029;-56
2021/10/21 01:31:41;;;;;;;5.10;2.20;;;;;;;14.67;86.82;98369.66;687876;28;1262;-57
2021/10/21 01:32:02;;;;;;;4.40;2.00;;;;;;;14.69;86.64;98359.91;687655;28;1886;-56
2021/10/21 01:32:24;;;;;;;3.88;1.90;;;;;;;14.70;86.47;98359.81;686861;28;3025;-56
2021/10/21 01:32:44;;;;;;;4.25;1.83;;;;;;;14.66;85.04;98360.06;688111;28;1306;-59
2021/10/21 01:33:05;;;;;;;4.40;1.90;;;;;;;14.66;85.79;98354.81;687524;28;1543;-55
2021/10/21 01:33:25;;;;;;;4.57;1.92;;;;;;;14.64;85.29;98368.06;687570;28;1204;-56
2021/10/21 01:33:46;;;;;;;4.83;1.83;;;;;;;14.64;85.08;98374.16;688691;28;1037;-58
2021/10/21 01:34:09;;;;;;;4.97;1.80;;;;;;;14.55;85.94;98369.41;685733;28;4681;-54
2021/10/21 01:34:29;;;;;;;4.43;2.00;;;;;;;14.44;85.35;98361.28;687654;28;931;-58
2021/10/21 01:34:50;;;;;;;4.35;1.77;;;;;;;14.48;83.60;98358.41;687178;28;1054;-56
2021/10/21 01:35:10;;;;;;;5.20;1.80;;;;;;;14.42;85.35;98364.00;688095;28;3048;-56
2021/10/21 01:35:31;;;;;;;4.70;2.00;;;;;;;14.37;86.23;98365.19;687770;28;3688;-54
2021/10/21 01:35:51;;;;;;;4.35;1.88;;;;;;;14.37;86.53;98366.06;688514;28;1178;-53
2021/10/21 01:36:13;;;;;;;4.67;1.70;;;;;;;14.24;87.62;98367.69;687174;28;1172;-52
2021/10/21 01:36:33;;;;;;;4.13;1.50;;;;;;;14.38;81.62;98357.22;688209;28;966;-51
2021/10/21 01:36:54;;;;;;;4.50;1.50;;;;;;;14.38;84.21;98359.84;687549;28;4409;-53
2021/10/21 01:37:15;;;;;;;5.00;1.70;;;;;;;14.25;84.45;98359.72;686307;28;1215;-55
2021/10/21 01:37:36;;;;;;;3.92;1.90;;;;;;;14.34;82.94;98374.09;683809;28;980;-57
2021/10/21 01:37:56;;;;;;;5.13;1.90;;;;;;;14.38;80.85;98372.16;684230;28;1074;-52
2021/10/21 01:38:17;;;;;;;4.93;1.50;;;;;;;14.37;80.00;98375.72;682074;28;3144;-59
2021/10/21 01:38:37;;;;;;;3.50;1.30;;;;;;;14.44;78.04;98370.03;680630;29;3488;-54
2021/10/21 01:38:57;;;;;;;2.67;1.13;;;;;;;14.47;79.58;98376.91;682015;28;1163;-55
2021/10/21 01:39:18;;;;;;;2.95;1.25;;;;;;;14.38;79.20;98377.41;684435;28;3618;-53
2021/10/21 01:39:38;;;;;;;3.50;1.40;;;;;;;14.34;79.33;98375.91;686600;28;1160;-56
2021/10/21 01:39:59;;;;;;;3.65;1.35;;;;;;;14.23;80.37;98374.72;687007;28;4922;-53
2021/10/21 01:40:21;;;;;;;4.78;1.23;;;;;;;14.21;78.67;98379.22;687733;28;920;-55
2021/10/21 01:40:41;;;;;;;4.70;1.10;;;;;;;14.18;80.01;98387.28;687492;28;1082;-53
2021/10/21 01:41:01;;;;;;;3.67;1.30;;;;;;;14.11;78.91;98375.41;688532;28;988;-53